createdAt,value
2016-12-12T00:00:12.641Z,0
2016-12-12T00:01:23.628Z,0
2016-12-12T00:02:34.623Z,0
2016-12-12T00:03:45.610Z,0
2016-12-12T00:04:56.599Z,0
2016-12-12T00:06:07.841Z,0
2016-12-12T00:07:18.834Z,0
2016-12-12T00:08:29.820Z,0
2016-12-12T00:09:40.846Z,0
2016-12-12T00:10:52.039Z,0
2016-12-12T00:12:03.079Z,0
2016-12-12T00:13:14.067Z,0
2016-12-12T00:14:25.051Z,0
2016-12-12T00:15:36.038Z,0
2016-12-12T00:16:47.022Z,0
2016-12-12T00:17:58.060Z,0
2016-12-12T00:19:09.044Z,0
2016-12-12T00:20:20.042Z,0
2016-12-12T00:21:31.034Z,0
2016-12-12T00:22:42.014Z,0
2016-12-12T00:23:53.261Z,0
2016-12-12T00:25:04.437Z,0
2016-12-12T00:26:15.434Z,0
2016-12-12T00:27:26.447Z,0
2016-12-12T00:28:37.639Z,0
2016-12-12T00:29:48.674Z,0
2016-12-12T00:30:59.659Z,0
2016-12-12T00:32:10.648Z,0
2016-12-12T00:33:21.634Z,0
2016-12-12T00:34:32.612Z,0
2016-12-12T00:35:43.658Z,0
2016-12-12T00:36:54.844Z,0
2016-12-12T00:38:06.042Z,0
2016-12-12T00:39:17.029Z,0
2016-12-12T00:40:28.023Z,0
2016-12-12T00:41:39.250Z,0
2016-12-12T00:42:50.242Z,0
2016-12-12T00:44:01.240Z,0
2016-12-12T00:45:12.225Z,0
2016-12-12T00:46:23.242Z,0
2016-12-12T00:47:34.281Z,0
2016-12-12T00:48:45.263Z,0
2016-12-12T00:49:56.250Z,0
2016-12-12T00:51:07.237Z,0
2016-12-12T00:52:18.226Z,0
2016-12-12T00:53:29.264Z,0
2016-12-12T00:54:40.251Z,0
2016-12-12T00:55:51.232Z,0
2016-12-12T00:57:02.217Z,0
2016-12-12T00:58:13.208Z,0
2016-12-12T00:59:24.249Z,0
2016-12-12T01:00:35.442Z,0
2016-12-12T01:01:46.425Z,0
2016-12-12T01:02:57.422Z,0
2016-12-12T01:04:08.414Z,0
2016-12-12T01:05:19.449Z,0
2016-12-12T01:06:30.638Z,0
2016-12-12T01:07:41.820Z,0
2016-12-12T01:08:53.010Z,0
2016-12-12T01:10:04.010Z,0
2016-12-12T01:11:15.007Z,0
2016-12-12T01:12:26.203Z,0
2016-12-12T01:13:37.395Z,0
2016-12-12T01:14:48.384Z,0
2016-12-12T01:15:59.370Z,0
2016-12-12T01:17:10.359Z,0
2016-12-12T01:18:21.346Z,0
2016-12-12T01:19:32.337Z,0
2016-12-12T01:20:43.576Z,0
2016-12-12T01:21:54.561Z,0
2016-12-12T01:23:05.543Z,0
2016-12-12T01:24:16.732Z,0
2016-12-12T01:25:27.924Z,0
2016-12-12T01:26:38.961Z,0
2016-12-12T01:27:50.151Z,0
2016-12-12T01:29:01.152Z,0
2016-12-12T01:30:12.133Z,0
2016-12-12T01:31:23.121Z,0
2016-12-12T01:32:34.160Z,0
2016-12-12T01:33:45.352Z,0
2016-12-12T01:34:56.337Z,0
2016-12-12T01:36:07.325Z,0
2016-12-12T01:37:18.310Z,0
2016-12-12T01:38:29.337Z,0
2016-12-12T01:39:40.521Z,0
2016-12-12T01:40:51.701Z,0
2016-12-12T01:42:02.685Z,0
2016-12-12T01:43:13.670Z,0
2016-12-12T01:44:24.914Z,0
2016-12-12T01:45:35.903Z,0
2016-12-12T01:46:47.088Z,0
2016-12-12T01:47:58.279Z,0
2016-12-12T01:49:09.286Z,0
2016-12-12T01:50:20.503Z,0
2016-12-12T01:51:31.494Z,0
2016-12-12T01:52:42.482Z,0
2016-12-12T01:53:53.472Z,0
2016-12-12T01:55:04.859Z,0
2016-12-12T01:56:15.848Z,0
2016-12-12T01:57:26.831Z,0
2016-12-12T01:58:37.819Z,0
2016-12-12T01:59:48.811Z,0
2016-12-12T02:00:59.798Z,0
2016-12-12T02:02:10.818Z,0
2016-12-12T02:03:22.041Z,0
2016-12-12T02:04:33.028Z,0
2016-12-12T02:05:44.011Z,0
2016-12-12T02:06:55.001Z,0
2016-12-12T02:08:06.593Z,0
2016-12-12T02:09:17.581Z,0
2016-12-12T02:10:28.574Z,0
2016-12-12T02:11:39.566Z,0
2016-12-12T02:12:50.550Z,0
2016-12-12T02:14:01.734Z,0
2016-12-12T02:15:13.172Z,0
2016-12-12T02:16:24.203Z,0
2016-12-12T02:17:35.195Z,0
2016-12-12T02:18:46.175Z,0
2016-12-12T02:19:57.190Z,0
2016-12-12T02:21:08.422Z,0
2016-12-12T02:22:19.415Z,0
2016-12-12T02:23:30.600Z,0
2016-12-12T02:24:41.590Z,0
2016-12-12T02:25:52.575Z,0
2016-12-12T02:27:03.603Z,0
2016-12-12T02:28:14.592Z,0
2016-12-12T02:29:25.584Z,0
2016-12-12T02:30:36.973Z,0
2016-12-12T02:31:47.962Z,0
2016-12-12T02:32:59.011Z,0
2016-12-12T02:34:10.008Z,0
2016-12-12T02:35:20.994Z,0
2016-12-12T02:36:31.986Z,0
2016-12-12T02:37:42.976Z,0
2016-12-12T02:38:54.016Z,0
2016-12-12T02:40:05.009Z,0
2016-12-12T02:41:16.228Z,0
2016-12-12T02:42:27.217Z,0
2016-12-12T02:43:38.203Z,0
2016-12-12T02:44:49.443Z,0
2016-12-12T02:46:00.431Z,0
2016-12-12T02:47:11.442Z,0
2016-12-12T02:48:22.430Z,0
2016-12-12T02:49:33.420Z,0
2016-12-12T02:50:44.410Z,0
2016-12-12T02:51:55.395Z,0
2016-12-12T02:53:06.413Z,0
2016-12-12T02:54:17.408Z,0
2016-12-12T02:55:28.427Z,0
2016-12-12T02:56:39.622Z,0
2016-12-12T02:57:50.606Z,0
2016-12-12T02:59:01.791Z,0
2016-12-12T03:00:12.839Z,0
2016-12-12T03:01:23.839Z,0
2016-12-12T03:02:34.827Z,0
2016-12-12T03:03:46.012Z,0
2016-12-12T03:04:57.013Z,0
2016-12-12T03:06:08.044Z,0
2016-12-12T03:07:19.239Z,0
2016-12-12T03:08:30.228Z,0
2016-12-12T03:09:41.213Z,0
2016-12-12T03:10:52.199Z,0
2016-12-12T03:12:03.240Z,0
2016-12-12T03:13:14.229Z,0
2016-12-12T03:14:25.214Z,0
2016-12-12T03:15:36.199Z,0
2016-12-12T03:16:47.187Z,0
2016-12-12T03:17:58.227Z,0
2016-12-12T03:19:09.213Z,0
2016-12-12T03:20:20.203Z,0
2016-12-12T03:21:31.192Z,0
2016-12-12T03:22:42.180Z,0
2016-12-12T03:23:53.213Z,0
2016-12-12T03:25:04.394Z,0
2016-12-12T03:26:15.381Z,0
2016-12-12T03:27:26.368Z,0
2016-12-12T03:28:37.355Z,0
2016-12-12T03:29:48.391Z,0
2016-12-12T03:30:59.379Z,0
2016-12-12T03:32:10.367Z,0
2016-12-12T03:33:21.344Z,0
2016-12-12T03:34:32.536Z,0
2016-12-12T03:35:43.728Z,0
2016-12-12T03:36:54.720Z,0
2016-12-12T03:38:05.706Z,0
2016-12-12T03:39:16.694Z,0
2016-12-12T03:40:27.672Z,0
2016-12-12T03:41:38.870Z,0
2016-12-12T03:42:49.859Z,0
2016-12-12T03:44:01.039Z,0
2016-12-12T03:45:12.025Z,0
2016-12-12T03:46:23.013Z,0
2016-12-12T03:47:33.995Z,0
2016-12-12T03:48:44.987Z,0
2016-12-12T03:49:55.974Z,0
2016-12-12T03:51:07.163Z,0
2016-12-12T03:52:18.145Z,0
2016-12-12T03:53:29.138Z,0
2016-12-12T03:54:40.137Z,0
2016-12-12T03:55:51.123Z,0
2016-12-12T03:57:02.116Z,0
2016-12-12T03:58:13.354Z,0
2016-12-12T03:59:24.338Z,0
2016-12-12T04:00:35.579Z,0
2016-12-12T04:01:46.566Z,0
2016-12-12T04:02:57.566Z,0
2016-12-12T04:04:08.962Z,0
2016-12-12T04:05:19.952Z,0
2016-12-12T04:06:30.993Z,0
2016-12-12T04:07:41.981Z,0
2016-12-12T04:08:52.967Z,0
2016-12-12T04:10:03.956Z,0
2016-12-12T04:11:14.937Z,0
2016-12-12T04:12:25.976Z,0
2016-12-12T04:13:36.969Z,0
2016-12-12T04:14:48.165Z,0
2016-12-12T04:15:59.143Z,0
2016-12-12T04:17:10.131Z,0
2016-12-12T04:18:21.172Z,0
2016-12-12T04:19:32.160Z,0
2016-12-12T04:20:43.144Z,0
2016-12-12T04:21:54.139Z,0
2016-12-12T04:23:05.137Z,0
2016-12-12T04:24:16.388Z,0
2016-12-12T04:25:27.383Z,0
2016-12-12T04:26:38.568Z,0
2016-12-12T04:27:49.564Z,0
2016-12-12T04:29:00.544Z,0
2016-12-12T04:30:11.595Z,0
2016-12-12T04:31:22.586Z,0
2016-12-12T04:32:33.580Z,0
2016-12-12T04:33:44.563Z,0
2016-12-12T04:34:55.960Z,0
2016-12-12T04:36:06.995Z,0
2016-12-12T04:37:18.184Z,0
2016-12-12T04:38:29.177Z,0
2016-12-12T04:39:40.177Z,0
2016-12-12T04:40:51.215Z,0
2016-12-12T04:42:02.401Z,0
2016-12-12T04:43:13.592Z,0
2016-12-12T04:44:24.775Z,0
2016-12-12T04:45:35.773Z,0
2016-12-12T04:46:47.008Z,0
2016-12-12T04:47:58.005Z,0
2016-12-12T04:49:08.990Z,0
2016-12-12T04:50:19.983Z,0
2016-12-12T04:51:30.980Z,0
2016-12-12T04:52:42.221Z,0
2016-12-12T04:53:53.214Z,0
2016-12-12T04:55:04.210Z,0
2016-12-12T04:56:15.194Z,0
2016-12-12T04:57:26.180Z,0
2016-12-12T04:58:37.422Z,0
2016-12-12T04:59:48.406Z,0
2016-12-12T05:00:59.595Z,0
2016-12-12T05:02:10.792Z,0
2016-12-12T05:03:21.982Z,0
2016-12-12T05:04:33.011Z,0
2016-12-12T05:05:44.205Z,0
2016-12-12T05:06:55.196Z,0
2016-12-12T05:08:06.187Z,0
2016-12-12T05:09:17.170Z,0
2016-12-12T05:10:28.159Z,0
2016-12-12T05:11:39.176Z,0
2016-12-12T05:12:50.156Z,0
2016-12-12T05:14:01.143Z,0
2016-12-12T05:15:12.165Z,0
2016-12-12T05:16:23.353Z,0
2016-12-12T05:17:34.348Z,0
2016-12-12T05:18:45.530Z,0
2016-12-12T05:19:56.518Z,0
2016-12-12T05:21:07.553Z,0
2016-12-12T05:22:18.543Z,0
2016-12-12T05:23:29.934Z,0
2016-12-12T05:24:41.320Z,0
2016-12-12T05:25:52.310Z,0
2016-12-12T05:27:03.554Z,0
2016-12-12T05:28:14.535Z,0
2016-12-12T05:29:25.730Z,0
2016-12-12T05:30:36.718Z,0
2016-12-12T05:31:47.904Z,0
2016-12-12T05:32:58.938Z,0
2016-12-12T05:34:09.928Z,0
2016-12-12T05:35:20.914Z,0
2016-12-12T05:36:31.940Z,0
2016-12-12T05:37:42.927Z,0
2016-12-12T05:38:53.964Z,0
2016-12-12T05:40:04.947Z,0
2016-12-12T05:41:15.939Z,0
2016-12-12T05:42:26.922Z,0
2016-12-12T05:43:37.943Z,0
2016-12-12T05:44:48.980Z,0
2016-12-12T05:45:59.964Z,0
2016-12-12T05:47:10.954Z,0
2016-12-12T05:48:22.143Z,0
2016-12-12T05:49:33.134Z,0
2016-12-12T05:50:44.164Z,0
2016-12-12T05:51:55.182Z,0
2016-12-12T05:53:06.170Z,0
2016-12-12T05:54:17.154Z,0
2016-12-12T05:55:28.145Z,0
2016-12-12T05:56:39.389Z,0
2016-12-12T05:57:50.382Z,0
2016-12-12T05:59:01.373Z,0
2016-12-12T06:00:12.367Z,0
2016-12-12T06:01:23.353Z,0
2016-12-12T06:02:34.389Z,0
2016-12-12T06:03:45.386Z,0
2016-12-12T06:04:56.380Z,0
2016-12-12T06:06:07.370Z,0
2016-12-12T06:07:18.369Z,0
2016-12-12T06:08:29.414Z,0
2016-12-12T06:09:40.600Z,0
2016-12-12T06:10:51.608Z,0
2016-12-12T06:12:02.617Z,0
2016-12-12T06:13:13.612Z,0
2016-12-12T06:14:24.650Z,0
2016-12-12T06:15:35.643Z,0
2016-12-12T06:16:46.828Z,0
2016-12-12T06:17:57.823Z,0
2016-12-12T06:19:08.812Z,0
2016-12-12T06:20:19.852Z,0
2016-12-12T06:21:30.842Z,0
2016-12-12T06:22:42.031Z,0
2016-12-12T06:23:53.027Z,0
2016-12-12T06:25:04.214Z,0
2016-12-12T06:26:15.445Z,0
2016-12-12T06:27:26.430Z,0
2016-12-12T06:28:37.421Z,0
2016-12-12T06:29:48.604Z,0
2016-12-12T06:30:59.590Z,0
2016-12-12T06:32:10.623Z,0
2016-12-12T06:33:21.603Z,0
2016-12-12T06:34:32.599Z,0
2016-12-12T06:35:43.589Z,0
2016-12-12T06:36:54.578Z,0
2016-12-12T06:38:05.620Z,0
2016-12-12T06:39:16.597Z,0
2016-12-12T06:40:27.793Z,0
2016-12-12T06:41:38.789Z,0
2016-12-12T06:42:49.782Z,0
2016-12-12T06:44:01.025Z,0
2016-12-12T06:45:12.013Z,0
2016-12-12T06:46:22.996Z,0
2016-12-12T06:47:33.980Z,0
2016-12-12T06:48:44.967Z,0
2016-12-12T06:49:56.011Z,4
2016-12-12T06:51:07.004Z,4
2016-12-12T06:52:17.983Z,0
2016-12-12T06:53:28.973Z,4
2016-12-12T06:54:39.961Z,4
2016-12-12T06:55:50.946Z,0
2016-12-12T06:57:01.938Z,4
2016-12-12T06:58:12.923Z,4
2016-12-12T06:59:23.905Z,4
2016-12-12T07:00:34.948Z,4
2016-12-12T07:01:45.934Z,8
2016-12-12T07:02:56.922Z,8
2016-12-12T07:04:07.912Z,8
2016-12-12T07:05:19.109Z,8
2016-12-12T07:06:30.153Z,8
2016-12-12T07:07:41.340Z,12
2016-12-12T07:08:52.319Z,16
2016-12-12T07:10:03.314Z,16
2016-12-12T07:11:14.307Z,24
2016-12-12T07:12:25.346Z,24
2016-12-12T07:13:36.564Z,28
2016-12-12T07:14:47.548Z,36
2016-12-12T07:15:58.562Z,40
2016-12-12T07:17:09.547Z,48
2016-12-12T07:18:20.582Z,48
2016-12-12T07:19:31.579Z,60
2016-12-12T07:20:42.561Z,72
2016-12-12T07:21:53.753Z,80
2016-12-12T07:23:04.746Z,92
2016-12-12T07:24:15.791Z,100
2016-12-12T07:25:26.776Z,108
2016-12-12T07:26:37.776Z,112
2016-12-12T07:27:48.759Z,124
2016-12-12T07:28:59.799Z,128
2016-12-12T07:30:10.988Z,140
2016-12-12T07:31:22.169Z,148
2016-12-12T07:32:33.160Z,152
2016-12-12T07:33:44.145Z,160
2016-12-12T07:34:55.131Z,168
2016-12-12T07:36:06.109Z,176
2016-12-12T07:37:17.097Z,184
2016-12-12T07:38:28.073Z,188
2016-12-12T07:39:39.053Z,200
2016-12-12T07:40:50.089Z,212
2016-12-12T07:42:01.068Z,224
2016-12-12T07:43:12.258Z,232
2016-12-12T07:44:23.247Z,232
2016-12-12T07:45:34.237Z,248
2016-12-12T07:46:45.475Z,256
2016-12-12T07:47:56.471Z,272
2016-12-12T07:49:07.464Z,284
2016-12-12T07:50:18.647Z,300
2016-12-12T07:51:29.669Z,308
2016-12-12T07:52:40.719Z,312
2016-12-12T07:53:52.106Z,316
2016-12-12T07:55:03.305Z,312
2016-12-12T07:56:14.298Z,316
2016-12-12T07:57:25.284Z,328
2016-12-12T07:58:36.349Z,336
2016-12-12T07:59:47.341Z,328
2016-12-12T08:00:58.320Z,328
2016-12-12T08:02:09.334Z,348
2016-12-12T08:03:20.524Z,372
2016-12-12T08:04:31.552Z,376
2016-12-12T08:05:42.542Z,364
2016-12-12T08:06:53.731Z,356
2016-12-12T08:08:04.716Z,356
2016-12-12T08:09:15.907Z,356
2016-12-12T08:10:26.884Z,368
2016-12-12T08:11:37.868Z,372
2016-12-12T08:12:49.062Z,392
2016-12-12T08:14:00.054Z,408
2016-12-12T08:15:11.042Z,384
2016-12-12T08:16:22.022Z,352
2016-12-12T08:17:33.006Z,352
2016-12-12T08:18:44.193Z,364
2016-12-12T08:19:55.170Z,380
2016-12-12T08:21:06.204Z,384
2016-12-12T08:22:17.191Z,396
2016-12-12T08:23:28.179Z,432
2016-12-12T08:24:39.163Z,480
2016-12-12T08:25:50.153Z,560
2016-12-12T08:27:01.193Z,544
2016-12-12T08:28:12.412Z,568
2016-12-12T08:29:23.623Z,568
2016-12-12T08:30:34.605Z,588
2016-12-12T08:31:45.592Z,608
2016-12-12T08:32:56.636Z,636
2016-12-12T08:34:07.627Z,640
2016-12-12T08:35:18.618Z,692
2016-12-12T08:36:29.616Z,724
2016-12-12T08:37:40.603Z,756
2016-12-12T08:38:51.636Z,792
2016-12-12T08:40:02.639Z,796
2016-12-12T08:41:13.629Z,812
2016-12-12T08:42:24.608Z,804
2016-12-12T08:43:35.617Z,764
2016-12-12T08:44:46.658Z,744
2016-12-12T08:45:57.639Z,776
2016-12-12T08:47:08.638Z,844
2016-12-12T08:48:19.649Z,904
2016-12-12T08:49:30.640Z,936
2016-12-12T08:50:41.631Z,952
2016-12-12T08:51:52.630Z,988
2016-12-12T08:53:03.622Z,976
2016-12-12T08:54:14.602Z,996
2016-12-12T08:55:25.632Z,1040
2016-12-12T08:56:36.818Z,1076
2016-12-12T08:57:47.813Z,1036
2016-12-12T08:58:58.998Z,980
2016-12-12T09:00:10.057Z,912
2016-12-12T09:01:21.048Z,828
2016-12-12T09:02:32.247Z,760
2016-12-12T09:03:43.230Z,756
2016-12-12T09:04:54.221Z,720
2016-12-12T09:06:05.209Z,684
2016-12-12T09:07:16.197Z,744
2016-12-12T09:08:27.191Z,828
2016-12-12T09:09:38.184Z,808
2016-12-12T09:10:49.220Z,820
2016-12-12T09:12:00.211Z,840
2016-12-12T09:13:11.191Z,796
2016-12-12T09:14:22.182Z,832
2016-12-12T09:15:33.173Z,860
2016-12-12T09:16:44.368Z,880
2016-12-12T09:17:55.357Z,872
2016-12-12T09:19:06.547Z,808
2016-12-12T09:20:17.782Z,936
2016-12-12T09:21:28.967Z,1028
2016-12-12T09:22:39.991Z,1044
2016-12-12T09:23:51.176Z,1048
2016-12-12T09:25:02.162Z,1036
2016-12-12T09:26:13.202Z,1012
2016-12-12T09:27:24.388Z,1108
2016-12-12T09:28:35.578Z,1228
2016-12-12T09:29:46.597Z,1300
2016-12-12T09:30:57.791Z,1420
2016-12-12T09:32:08.834Z,1388
2016-12-12T09:33:20.221Z,1372
2016-12-12T09:34:31.409Z,1376
2016-12-12T09:35:42.393Z,1348
2016-12-12T09:36:53.382Z,1352
2016-12-12T09:38:04.420Z,1332
2016-12-12T09:39:15.403Z,1296
2016-12-12T09:40:26.390Z,1268
2016-12-12T09:41:37.402Z,1396
2016-12-12T09:42:48.380Z,1528
2016-12-12T09:43:59.619Z,1584
2016-12-12T09:45:10.605Z,1684
2016-12-12T09:46:21.791Z,1652
2016-12-12T09:47:32.774Z,1664
2016-12-12T09:48:43.766Z,1672
2016-12-12T09:49:55.004Z,1684
2016-12-12T09:51:05.985Z,1712
2016-12-12T09:52:16.967Z,1708
2016-12-12T09:53:27.957Z,1732
2016-12-12T09:54:38.962Z,1752
2016-12-12T09:55:49.964Z,1780
2016-12-12T09:57:00.952Z,1784
2016-12-12T09:58:11.931Z,1804
2016-12-12T09:59:22.925Z,1856
2016-12-12T10:00:33.912Z,1888
2016-12-12T10:01:44.905Z,1916
2016-12-12T10:02:55.891Z,1916
2016-12-12T10:04:06.885Z,1908
2016-12-12T10:05:17.873Z,1876
2016-12-12T10:06:28.867Z,1832
2016-12-12T10:07:39.865Z,1648
2016-12-12T10:08:50.852Z,1532
2016-12-12T10:10:01.842Z,1584
2016-12-12T10:11:13.024Z,1660
2016-12-12T10:12:24.012Z,1696
2016-12-12T10:13:35.205Z,1768
2016-12-12T10:14:46.196Z,1888
2016-12-12T10:15:57.229Z,1960
2016-12-12T10:17:08.225Z,2052
2016-12-12T10:18:19.206Z,2168
2016-12-12T10:19:30.196Z,2216
2016-12-12T10:20:41.236Z,2352
2016-12-12T10:21:52.219Z,2512
2016-12-12T10:23:03.219Z,2288
2016-12-12T10:24:14.201Z,2116
2016-12-12T10:25:25.182Z,2160
2016-12-12T10:26:36.420Z,2244
2016-12-12T10:27:47.610Z,2276
2016-12-12T10:28:58.807Z,2424
2016-12-12T10:30:09.801Z,2604
2016-12-12T10:31:20.784Z,2420
2016-12-12T10:32:31.821Z,2272
2016-12-12T10:33:42.816Z,1932
2016-12-12T10:34:54.009Z,1864
2016-12-12T10:36:04.993Z,1976
2016-12-12T10:37:15.981Z,2060
2016-12-12T10:38:27.009Z,2156
2016-12-12T10:39:38.194Z,2288
2016-12-12T10:40:49.181Z,2300
2016-12-12T10:42:00.170Z,2284
2016-12-12T10:43:11.363Z,2232
2016-12-12T10:44:22.410Z,2244
2016-12-12T10:45:33.402Z,2092
2016-12-12T10:46:44.427Z,2104
2016-12-12T10:47:55.417Z,2096
2016-12-12T10:49:06.406Z,2068
2016-12-12T10:50:17.445Z,1952
2016-12-12T10:51:28.429Z,1792
2016-12-12T10:52:39.613Z,1672
2016-12-12T10:53:50.800Z,1612
2016-12-12T10:55:01.983Z,1644
2016-12-12T10:56:13.020Z,1668
2016-12-12T10:57:24.210Z,1664
2016-12-12T10:58:35.204Z,1628
2016-12-12T10:59:46.207Z,1568
2016-12-12T11:00:57.187Z,1548
2016-12-12T11:02:08.216Z,1552
2016-12-12T11:03:19.208Z,1596
2016-12-12T11:04:30.202Z,1512
2016-12-12T11:05:41.187Z,1360
2016-12-12T11:06:52.202Z,1428
2016-12-12T11:08:03.241Z,1492
2016-12-12T11:09:14.423Z,1524
2016-12-12T11:10:25.413Z,1444
2016-12-12T11:11:36.402Z,1268
2016-12-12T11:12:47.384Z,1148
2016-12-12T11:13:58.421Z,1236
2016-12-12T11:15:09.440Z,1336
2016-12-12T11:16:20.421Z,1448
2016-12-12T11:17:31.410Z,1536
2016-12-12T11:18:42.411Z,1520
2016-12-12T11:19:53.451Z,1456
2016-12-12T11:21:04.441Z,1376
2016-12-12T11:22:15.434Z,1344
2016-12-12T11:23:26.411Z,1360
2016-12-12T11:24:37.396Z,1432
2016-12-12T11:25:48.437Z,1532
2016-12-12T11:26:59.429Z,1548
2016-12-12T11:28:10.413Z,1472
2016-12-12T11:29:21.398Z,1432
2016-12-12T11:30:32.383Z,1512
2016-12-12T11:31:43.441Z,1500
2016-12-12T11:32:54.418Z,1460
2016-12-12T11:34:05.411Z,1536
2016-12-12T11:35:16.393Z,1700
2016-12-12T11:36:27.374Z,1740
2016-12-12T11:37:38.419Z,1744
2016-12-12T11:38:49.411Z,1868
2016-12-12T11:40:00.396Z,1884
2016-12-12T11:41:11.396Z,1888
2016-12-12T11:42:22.392Z,1868
2016-12-12T11:43:33.616Z,1936
2016-12-12T11:44:44.605Z,2048
2016-12-12T11:45:55.594Z,2116
2016-12-12T11:47:06.613Z,2244
2016-12-12T11:48:17.594Z,2396
2016-12-12T11:49:28.844Z,2432
2016-12-12T11:50:39.843Z,2332
2016-12-12T11:51:50.836Z,2352
2016-12-12T11:53:01.822Z,2188
2016-12-12T11:54:12.808Z,1992
2016-12-12T11:55:24.046Z,1996
2016-12-12T11:56:35.049Z,2336
2016-12-12T11:57:46.048Z,2484
2016-12-12T11:58:57.035Z,2484
2016-12-12T12:00:08.020Z,2380
2016-12-12T12:01:19.062Z,2428
2016-12-12T12:02:30.042Z,2552
2016-12-12T12:03:41.024Z,2236
2016-12-12T12:04:52.007Z,1872
2016-12-12T12:06:02.986Z,1576
2016-12-12T12:07:14.029Z,1364
2016-12-12T12:08:25.027Z,1384
2016-12-12T12:09:36.221Z,1668
2016-12-12T12:10:47.613Z,1860
2016-12-12T12:11:58.596Z,1828
2016-12-12T12:13:09.839Z,1752
2016-12-12T12:14:20.828Z,1884
2016-12-12T12:15:31.817Z,2360
2016-12-12T12:16:42.810Z,2328
2016-12-12T12:17:53.793Z,1728
2016-12-12T12:19:04.840Z,1584
2016-12-12T12:20:16.020Z,1584
2016-12-12T12:21:27.208Z,1864
2016-12-12T12:22:38.201Z,1992
2016-12-12T12:23:49.212Z,1876
2016-12-12T12:25:00.252Z,1796
2016-12-12T12:26:11.234Z,1732
2016-12-12T12:27:22.227Z,1664
2016-12-12T12:28:33.417Z,1700
2016-12-12T12:29:44.408Z,1736
2016-12-12T12:30:55.448Z,1736
2016-12-12T12:32:06.842Z,1780
2016-12-12T12:33:17.828Z,1716
2016-12-12T12:34:28.816Z,1728
2016-12-12T12:35:39.804Z,1772
2016-12-12T12:36:50.845Z,1708
2016-12-12T12:38:01.831Z,1492
2016-12-12T12:39:12.823Z,1472
2016-12-12T12:40:23.810Z,1780
2016-12-12T12:41:34.795Z,1916
2016-12-12T12:42:46.031Z,1824
2016-12-12T12:43:57.021Z,1684
2016-12-12T12:45:08.012Z,1628
2016-12-12T12:46:19.199Z,1688
2016-12-12T12:47:30.197Z,1788
2016-12-12T12:48:41.234Z,1940
2016-12-12T12:49:52.224Z,1828
2016-12-12T12:51:03.213Z,1684
2016-12-12T12:52:14.405Z,1600
2016-12-12T12:53:25.389Z,1496
2016-12-12T12:54:36.462Z,1452
2016-12-12T12:55:47.454Z,1504
2016-12-12T12:56:58.441Z,1624
2016-12-12T12:58:09.429Z,1524
2016-12-12T12:59:20.417Z,1412
2016-12-12T13:00:31.463Z,1356
2016-12-12T13:01:42.450Z,1364
2016-12-12T13:02:53.455Z,1320
2016-12-12T13:04:04.448Z,1340
2016-12-12T13:05:15.434Z,1300
2016-12-12T13:06:26.675Z,1276
2016-12-12T13:07:37.661Z,1424
2016-12-12T13:08:48.651Z,1408
2016-12-12T13:09:59.636Z,1340
2016-12-12T13:11:10.625Z,1396
2016-12-12T13:12:21.668Z,1412
2016-12-12T13:13:32.682Z,1192
2016-12-12T13:14:43.666Z,1080
2016-12-12T13:15:54.855Z,1160
2016-12-12T13:17:06.043Z,1200
2016-12-12T13:18:17.087Z,1172
2016-12-12T13:19:28.067Z,1112
2016-12-12T13:20:39.051Z,1148
2016-12-12T13:21:50.240Z,1212
2016-12-12T13:23:01.219Z,1212
2016-12-12T13:24:12.265Z,1144
2016-12-12T13:25:23.256Z,1136
2016-12-12T13:26:34.477Z,1132
2016-12-12T13:27:45.462Z,1092
2016-12-12T13:28:56.461Z,1092
2016-12-12T13:30:07.500Z,1028
2016-12-12T13:31:18.488Z,936
2016-12-12T13:32:29.675Z,924
2016-12-12T13:33:40.872Z,924
2016-12-12T13:34:52.265Z,952
2016-12-12T13:36:03.311Z,1048
2016-12-12T13:37:14.308Z,1096
2016-12-12T13:38:25.493Z,1056
2016-12-12T13:39:36.479Z,1048
2016-12-12T13:40:47.470Z,968
2016-12-12T13:41:58.547Z,896
2016-12-12T13:43:09.542Z,864
2016-12-12T13:44:20.556Z,824
2016-12-12T13:45:31.545Z,776
2016-12-12T13:46:42.537Z,780
2016-12-12T13:47:53.579Z,768
2016-12-12T13:49:04.573Z,748
2016-12-12T13:50:15.555Z,776
2016-12-12T13:51:26.542Z,784
2016-12-12T13:52:37.724Z,808
2016-12-12T13:53:48.997Z,768
2016-12-12T13:54:59.980Z,704
2016-12-12T13:56:10.971Z,656
2016-12-12T13:57:21.961Z,632
2016-12-12T13:58:32.948Z,632
2016-12-12T13:59:43.991Z,632
2016-12-12T14:00:54.980Z,628
2016-12-12T14:02:05.979Z,612
2016-12-12T14:03:17.175Z,520
2016-12-12T14:04:28.160Z,444
2016-12-12T14:05:39.152Z,400
2016-12-12T14:06:50.348Z,376
2016-12-12T14:08:01.366Z,392
2016-12-12T14:09:12.356Z,476
2016-12-12T14:10:23.355Z,516
2016-12-12T14:11:34.544Z,480
2016-12-12T14:12:45.523Z,444
2016-12-12T14:13:56.508Z,428
2016-12-12T14:15:07.559Z,408
2016-12-12T14:16:18.544Z,392
2016-12-12T14:17:29.731Z,412
2016-12-12T14:18:40.714Z,456
2016-12-12T14:19:51.932Z,524
2016-12-12T14:21:02.966Z,552
2016-12-12T14:22:13.954Z,488
2016-12-12T14:23:24.930Z,364
2016-12-12T14:24:35.916Z,288
2016-12-12T14:25:46.897Z,264
2016-12-12T14:26:57.931Z,252
2016-12-12T14:28:08.923Z,260
2016-12-12T14:29:19.907Z,272
2016-12-12T14:30:30.894Z,248
2016-12-12T14:31:41.882Z,208
2016-12-12T14:32:52.917Z,176
2016-12-12T14:34:04.100Z,152
2016-12-12T14:35:15.085Z,136
2016-12-12T14:36:26.066Z,128
2016-12-12T14:37:37.064Z,120
2016-12-12T14:38:48.306Z,120
2016-12-12T14:39:59.290Z,128
2016-12-12T14:41:10.487Z,128
2016-12-12T14:42:21.705Z,132
2016-12-12T14:43:32.687Z,136
2016-12-12T14:44:43.720Z,140
2016-12-12T14:45:54.706Z,144
2016-12-12T14:47:05.701Z,160
2016-12-12T14:48:16.698Z,160
2016-12-12T14:49:27.887Z,164
2016-12-12T14:50:39.275Z,164
2016-12-12T14:51:50.267Z,160
2016-12-12T14:53:01.453Z,152
2016-12-12T14:54:12.437Z,144
2016-12-12T14:55:23.416Z,140
2016-12-12T14:56:34.404Z,132
2016-12-12T14:57:45.591Z,124
2016-12-12T14:58:56.569Z,116
2016-12-12T15:00:08.206Z,104
2016-12-12T15:01:19.393Z,96
2016-12-12T15:02:30.387Z,84
2016-12-12T15:03:41.580Z,76
2016-12-12T15:04:52.563Z,64
2016-12-12T15:06:03.797Z,60
2016-12-12T15:07:14.985Z,52
2016-12-12T15:08:25.989Z,44
2016-12-12T15:09:36.985Z,40
2016-12-12T15:10:47.978Z,36
2016-12-12T15:11:59.016Z,44
2016-12-12T15:13:10.017Z,52
2016-12-12T15:14:21.007Z,56
2016-12-12T15:15:32.200Z,64
2016-12-12T15:16:43.223Z,60
2016-12-12T15:17:54.260Z,60
2016-12-12T15:19:05.243Z,60
2016-12-12T15:20:16.241Z,52
2016-12-12T15:21:27.222Z,48
2016-12-12T15:22:38.211Z,48
2016-12-12T15:23:49.249Z,40
2016-12-12T15:25:00.440Z,36
2016-12-12T15:26:11.430Z,32
2016-12-12T15:27:22.616Z,28
2016-12-12T15:28:33.597Z,24
2016-12-12T15:29:44.673Z,24
2016-12-12T15:30:55.661Z,20
2016-12-12T15:32:06.847Z,20
2016-12-12T15:33:17.834Z,16
2016-12-12T15:34:29.023Z,16
2016-12-12T15:35:40.022Z,12
2016-12-12T15:36:51.005Z,8
2016-12-12T15:38:01.989Z,8
2016-12-12T15:39:12.970Z,8
2016-12-12T15:40:24.156Z,8
2016-12-12T15:41:35.135Z,4
2016-12-12T15:42:46.117Z,4
2016-12-12T15:43:57.111Z,4
2016-12-12T15:45:08.096Z,4
2016-12-12T15:46:19.477Z,4
2016-12-12T15:47:30.462Z,0
2016-12-12T15:48:41.449Z,4
2016-12-12T15:49:52.433Z,4
2016-12-12T15:51:03.422Z,0
2016-12-12T15:52:14.409Z,0
2016-12-12T15:53:25.443Z,0
2016-12-12T15:54:36.435Z,0
2016-12-12T15:55:47.421Z,0
2016-12-12T15:56:58.399Z,0
2016-12-12T15:58:09.396Z,0
2016-12-12T15:59:20.386Z,0
2016-12-12T16:00:31.378Z,0
2016-12-12T16:01:42.368Z,0
2016-12-12T16:02:53.355Z,0
2016-12-12T16:04:04.332Z,0
2016-12-12T16:05:15.320Z,0
2016-12-12T16:06:26.311Z,0
2016-12-12T16:07:37.323Z,0
2016-12-12T16:08:48.312Z,0
2016-12-12T16:09:59.502Z,0
2016-12-12T16:11:10.488Z,0
2016-12-12T16:12:21.466Z,0
2016-12-12T16:13:32.461Z,0
2016-12-12T16:14:43.445Z,0
2016-12-12T16:15:54.437Z,0
2016-12-12T16:17:05.431Z,0
2016-12-12T16:18:16.423Z,0
2016-12-12T16:19:27.622Z,0
2016-12-12T16:20:38.859Z,0
2016-12-12T16:21:49.845Z,0
2016-12-12T16:23:01.032Z,0
2016-12-12T16:24:12.029Z,0
2016-12-12T16:25:23.011Z,0
2016-12-12T16:26:34.036Z,0
2016-12-12T16:27:45.018Z,0
2016-12-12T16:28:56.004Z,0
2016-12-12T16:30:07.194Z,0
2016-12-12T16:31:18.190Z,0
2016-12-12T16:32:29.223Z,0
2016-12-12T16:33:40.415Z,0
2016-12-12T16:34:51.409Z,0
2016-12-12T16:36:02.399Z,0
2016-12-12T16:37:13.388Z,0
2016-12-12T16:38:24.418Z,0
2016-12-12T16:39:35.405Z,0
2016-12-12T16:40:46.430Z,0
2016-12-12T16:41:57.421Z,0
2016-12-12T16:43:08.406Z,0
2016-12-12T16:44:19.434Z,0
2016-12-12T16:45:30.424Z,0